createdAt,value
2022-12-22T00:02:00.933Z,93484.19
2022-12-22T00:04:46.108Z,93537.06
2022-12-22T00:07:30.928Z,93515.13
2022-12-22T00:10:15.895Z,93533.84
2022-12-22T00:13:00.694Z,93520.06
2022-12-22T00:15:49.898Z,93507.56
2022-12-22T00:18:35.803Z,93507.94
2022-12-22T00:21:20.547Z,93499.59
2022-12-22T00:24:05.268Z,93490.13
2022-12-22T00:26:52.621Z,93495.06
2022-12-22T00:30:00.451Z,93505.75
2022-12-22T00:32:50.545Z,93502.97
2022-12-22T00:35:42.385Z,93483.13
2022-12-22T00:38:36.285Z,93496.34
2022-12-22T00:41:30.295Z,93487.47
2022-12-22T00:44:15.568Z,93492.56
2022-12-22T00:47:02.889Z,93495.66
2022-12-22T00:49:54.907Z,93487.88
2022-12-22T00:52:41.743Z,93506.97
2022-12-22T00:55:37.807Z,93513.91
2022-12-22T00:58:31.340Z,93462.06
2022-12-22T01:01:16.596Z,93475.19
2022-12-22T01:04:01.411Z,93498.78
2022-12-22T01:06:49.378Z,93494.50
2022-12-22T01:09:35.142Z,93486.84
2022-12-22T01:12:20.425Z,93477.38
2022-12-22T01:15:05.426Z,93474.31
2022-12-22T01:17:50.499Z,93490.16
2022-12-22T01:20:35.352Z,93488.31
2022-12-22T01:23:20.109Z,93470.25
2022-12-22T01:26:04.969Z,93484.28
2022-12-22T01:28:49.737Z,93478.28
2022-12-22T01:31:49.672Z,93474.53
2022-12-22T01:34:35.008Z,93489.56
2022-12-22T01:37:20.238Z,93484.00
2022-12-22T01:40:05.150Z,93507.81
2022-12-22T01:42:52.394Z,93511.38
2022-12-22T01:45:45.612Z,93472.75
2022-12-22T01:48:52.444Z,93502.44
2022-12-22T01:51:47.196Z,93468.25
2022-12-22T01:54:33.597Z,93491.59
2022-12-22T01:57:18.792Z,93462.72
2022-12-22T02:00:03.652Z,93485.19
2022-12-22T02:02:51.317Z,93481.91
2022-12-22T02:05:38.112Z,93439.38
2022-12-22T02:08:22.985Z,93484.81
2022-12-22T02:11:37.244Z,93489.78
2022-12-22T02:14:49.030Z,93487.44
2022-12-22T02:17:48.443Z,93477.59
2022-12-22T02:20:49.978Z,93492.09
2022-12-22T02:23:53.941Z,93495.97
2022-12-22T02:27:07.348Z,93497.75
2022-12-22T02:29:57.691Z,93502.81
2022-12-22T02:32:43.779Z,93505.16
2022-12-22T02:35:31.023Z,93497.56
2022-12-22T02:38:49.887Z,93493.53
2022-12-22T02:42:06.248Z,93515.59
2022-12-22T02:45:21.406Z,93485.75
2022-12-22T02:48:28.230Z,93492.78
2022-12-22T02:51:25.971Z,93491.97
2022-12-22T02:54:12.682Z,93491.97
2022-12-22T02:56:59.917Z,93492.78
2022-12-22T02:59:44.879Z,93480.69
2022-12-22T03:02:32.206Z,93503.69
2022-12-22T03:05:17.469Z,93469.34
2022-12-22T03:08:08.002Z,93494.00
2022-12-22T03:10:53.942Z,93501.94
2022-12-22T03:13:38.825Z,93495.47
2022-12-22T03:16:25.129Z,93483.22
2022-12-22T03:19:10.310Z,93488.22
2022-12-22T03:21:55.275Z,93463.78
2022-12-22T03:24:40.018Z,93493.97
2022-12-22T03:27:06.427Z,93481.66
2022-12-22T03:29:32.820Z,93483.84
2022-12-22T03:32:00.398Z,93474.66
2022-12-22T03:34:26.876Z,93483.22
2022-12-22T03:36:53.287Z,93472.78
2022-12-22T03:39:19.696Z,93445.34
2022-12-22T03:42:04.752Z,93458.03
2022-12-22T03:44:49.572Z,93447.47
2022-12-22T03:47:16.029Z,93457.13
2022-12-22T03:49:42.476Z,93445.25
2022-12-22T03:52:08.879Z,93440.03
2022-12-22T03:54:35.273Z,93445.88
2022-12-22T03:57:01.671Z,93454.56
2022-12-22T03:59:28.084Z,93420.31
2022-12-22T04:01:54.943Z,93446.53
2022-12-22T04:04:24.622Z,93456.91
2022-12-22T04:06:51.068Z,93450.88
2022-12-22T04:09:17.651Z,93465.56
2022-12-22T04:12:03.133Z,93480.59
2022-12-22T04:14:33.757Z,93436.94
2022-12-22T04:17:01.682Z,93471.19
2022-12-22T04:19:28.168Z,93453.09
2022-12-22T04:21:54.752Z,93467.16
2022-12-22T04:24:22.267Z,93425.13
2022-12-22T04:26:49.251Z,93451.25
2022-12-22T04:29:15.876Z,93421.19
2022-12-22T04:31:42.488Z,93416.31
2022-12-22T04:34:08.974Z,93418.19
2022-12-22T04:36:35.554Z,93430.53
2022-12-22T04:39:02.217Z,93413.84
2022-12-22T04:41:28.801Z,93425.84
2022-12-22T04:43:55.217Z,93410.31
2022-12-22T04:46:21.748Z,93405.28
2022-12-22T04:48:53.225Z,93418.91
2022-12-22T04:51:24.162Z,93395.56
2022-12-22T04:53:50.600Z,93421.16
2022-12-22T04:56:17.127Z,93421.81
2022-12-22T04:58:43.524Z,93424.28
2022-12-22T05:01:16.552Z,93417.34
2022-12-22T05:03:43.460Z,93387.91
2022-12-22T05:06:10.247Z,93383.84
2022-12-22T05:08:37.331Z,93400.16
2022-12-22T05:11:06.896Z,93422.66
2022-12-22T05:13:36.705Z,93420.25
2022-12-22T05:16:18.627Z,93419.34
2022-12-22T05:18:45.833Z,93422.00
2022-12-22T05:21:17.595Z,93399.69
2022-12-22T05:23:44.482Z,93411.16
2022-12-22T05:26:14.568Z,93409.94
2022-12-22T05:28:46.368Z,93423.16
2022-12-22T05:31:20.068Z,93400.66
2022-12-22T05:33:46.930Z,93397.19
2022-12-22T06:05:55.313Z,93415.84
2022-12-22T06:08:22.240Z,93418.94
2022-12-22T06:10:57.884Z,93391.63
2022-12-22T06:13:26.126Z,93378.41
2022-12-22T06:15:52.999Z,93362.88
2022-12-22T06:18:19.652Z,93361.47
2022-12-22T06:20:46.918Z,93390.38
2022-12-22T06:23:22.594Z,93395.19
2022-12-22T06:26:02.807Z,93352.44
2022-12-22T06:28:29.557Z,93375.94
2022-12-22T06:30:56.183Z,93375.31
2022-12-22T06:33:31.833Z,93377.91
2022-12-22T06:35:59.583Z,93386.69
2022-12-22T06:38:27.977Z,93379.81
2022-12-22T06:41:00.446Z,93379.88
2022-12-22T06:43:26.922Z,93382.84
2022-12-22T06:45:53.621Z,93375.19
2022-12-22T06:48:20.528Z,93414.25
2022-12-22T06:50:46.916Z,93420.56
2022-12-22T06:53:13.378Z,93406.09
2022-12-22T06:55:39.933Z,93393.34
2022-12-22T06:58:06.633Z,93389.28
2022-12-22T07:00:34.095Z,93419.50
2022-12-22T07:03:01.773Z,93391.97
2022-12-22T07:05:30.251Z,93398.09
2022-12-22T07:07:58.704Z,93391.78
2022-12-22T07:10:46.196Z,93407.47
2022-12-22T07:13:21.376Z,93399.88
2022-12-22T07:15:55.663Z,93421.94
2022-12-22T07:18:26.791Z,93411.22
2022-12-22T07:20:54.193Z,93386.81
2022-12-22T07:23:20.596Z,93387.22
2022-12-22T07:25:46.983Z,93402.47
2022-12-22T07:28:16.711Z,93384.44
2022-12-22T07:30:47.326Z,93377.69
2022-12-22T07:33:13.759Z,93391.16
2022-12-22T07:35:40.126Z,93374.50
2022-12-22T07:38:06.654Z,93395.78
2022-12-22T07:40:38.121Z,93387.38
2022-12-22T07:43:08.162Z,93359.09
2022-12-22T07:45:34.546Z,93364.91
2022-12-22T07:48:22.753Z,93353.69
2022-12-22T07:50:49.231Z,93324.22
2022-12-22T07:53:15.652Z,93357.72
2022-12-22T07:55:42.058Z,93378.56
2022-12-22T07:58:08.459Z,93372.53
2022-12-22T08:00:34.850Z,93358.50
2022-12-22T08:03:02.729Z,93324.84
2022-12-22T08:05:29.303Z,93325.66
2022-12-22T08:07:55.710Z,93346.09
2022-12-22T08:10:22.227Z,93324.84
2022-12-22T08:12:48.691Z,93309.63
2022-12-22T08:15:15.265Z,93297.59
2022-12-22T08:17:41.681Z,93283.97
2022-12-22T08:20:08.632Z,93299.81
2022-12-22T08:22:35.132Z,93257.75
2022-12-22T08:25:01.685Z,93293.59
2022-12-22T08:27:43.482Z,93305.59
2022-12-22T08:30:10.987Z,93287.97
2022-12-22T08:32:38.607Z,93299.19
2022-12-22T08:35:06.707Z,93350.09
2022-12-22T08:37:41.255Z,93322.81
2022-12-22T08:40:26.409Z,93325.63
2022-12-22T08:42:59.110Z,93315.59
2022-12-22T08:45:33.111Z,93329.22
2022-12-22T08:47:59.777Z,93356.50
2022-12-22T08:50:26.196Z,93331.19
2022-12-22T08:52:52.617Z,93332.00
2022-12-22T08:55:31.543Z,93332.41
2022-12-22T08:57:58.077Z,93355.25
2022-12-22T09:00:25.487Z,93339.16
2022-12-22T09:02:52.405Z,93343.59
2022-12-22T09:05:21.030Z,93349.28
2022-12-22T09:07:56.597Z,93314.75
2022-12-22T09:10:23.007Z,93332.34
2022-12-22T09:12:51.229Z,93317.53
2022-12-22T09:15:18.502Z,93350.41
2022-12-22T09:17:44.964Z,93310.22
2022-12-22T09:20:11.712Z,93331.47
2022-12-22T09:22:43.206Z,93339.81
2022-12-22T09:25:10.796Z,93325.38
2022-12-22T09:27:37.185Z,93356.63
2022-12-22T09:30:03.979Z,93354.19
2022-12-22T09:32:30.365Z,93356.63
2022-12-22T09:34:56.804Z,93364.16
2022-12-22T09:37:23.251Z,93373.19
2022-12-22T09:39:49.673Z,93378.47
2022-12-22T09:42:20.219Z,93385.31
2022-12-22T09:44:50.537Z,93389.31
2022-12-22T09:47:21.367Z,93392.09
2022-12-22T09:49:48.207Z,93360.47
2022-12-22T09:52:41.249Z,93376.47
2022-12-22T09:55:28.554Z,93383.28
2022-12-22T09:58:30.162Z,93393.31
2022-12-22T10:01:02.567Z,93390.06
2022-12-22T10:03:48.610Z,93378.75
2022-12-22T10:06:35.269Z,93396.34
2022-12-22T10:09:47.759Z,93401.53
2022-12-22T10:12:06.919Z,93394.31
2022-12-22T10:14:36.604Z,93399.53
2022-12-22T10:17:15.727Z,93382.38
2022-12-22T10:19:42.739Z,93381.75
2022-12-22T10:22:31.053Z,93413.47
2022-12-22T10:25:24.239Z,93393.31
2022-12-22T10:27:51.658Z,93391.38
2022-12-22T10:30:28.309Z,93423.63
2022-12-22T10:33:33.573Z,93416.16
2022-12-22T10:36:00.060Z,93405.44
2022-12-22T10:38:35.631Z,93411.84
2022-12-22T10:41:31.045Z,93401.38
2022-12-22T10:44:00.641Z,93433.09
2022-12-22T10:46:38.677Z,93430.72
2022-12-22T10:49:09.626Z,93450.66
2022-12-22T10:51:36.182Z,93447.06
2022-12-22T10:54:02.707Z,93427.06
2022-12-22T10:56:31.598Z,93434.88
2022-12-22T10:59:20.163Z,93450.28
2022-12-22T11:02:39.116Z,93425.47
2022-12-22T11:05:12.323Z,93406.63
2022-12-22T11:07:41.497Z,93432.91
2022-12-22T11:10:17.616Z,93416.25
2022-12-22T11:13:21.597Z,93446.56
2022-12-22T11:16:25.791Z,93437.13
2022-12-22T11:19:13.551Z,93433.13
2022-12-22T11:22:00.409Z,93425.47
2022-12-22T11:24:55.057Z,93428.47
2022-12-22T11:27:53.792Z,93430.69
2022-12-22T11:30:26.189Z,93393.78
2022-12-22T11:33:16.765Z,93423.44
2022-12-22T11:36:04.821Z,93397.53
2022-12-22T11:39:06.868Z,93424.19
2022-12-22T11:41:48.459Z,93422.16
2022-12-22T11:44:31.216Z,93418.13
2022-12-22T11:47:18.279Z,93392.09
2022-12-22T11:50:58.677Z,93418.97
2022-12-22T11:53:43.074Z,93416.97
2022-12-22T11:56:23.564Z,93379.94
2022-12-22T11:59:32.765Z,93440.50
2022-12-22T12:02:14.548Z,93405.59
2022-12-22T12:05:26.764Z,93361.72
2022-12-22T12:08:15.132Z,93388.50
2022-12-22T12:10:48.845Z,93421.84
2022-12-22T12:13:31.719Z,93385.31
2022-12-22T12:16:15.389Z,93413.78
2022-12-22T12:18:41.787Z,93401.53
2022-12-22T12:21:42.417Z,93397.91
2022-12-22T12:24:25.093Z,93393.31
2022-12-22T12:26:54.719Z,93401.47
2022-12-22T12:30:13.502Z,93392.66
2022-12-22T12:32:58.242Z,93399.69
2022-12-22T12:35:46.439Z,93410.94
2022-12-22T12:41:37.963Z,93397.38
2022-12-22T12:44:06.167Z,93407.44
2022-12-22T12:46:52.506Z,93430.66
2022-12-22T12:49:44.873Z,93415.81
2022-12-22T12:52:12.266Z,93413.56
2022-12-22T12:54:47.243Z,93420.56
2022-12-22T12:57:52.555Z,93438.25
2022-12-22T13:00:34.730Z,93421.81
2022-12-22T13:04:02.611Z,93431.41
2022-12-22T13:06:49.079Z,93434.63
2022-12-22T13:09:48.690Z,93383.28
2022-12-22T13:12:41.007Z,93421.22
2022-12-22T13:15:27.350Z,93382.16
2022-12-22T13:17:54.005Z,93411.41
2022-12-22T13:20:26.011Z,93416.63
2022-12-22T13:22:54.548Z,93392.94
2022-12-22T13:25:22.783Z,93413.78
2022-12-22T13:27:50.765Z,93433.81
2022-12-22T13:30:20.537Z,93422.94
2022-12-22T13:32:50.200Z,93433.81
2022-12-22T13:35:38.667Z,93417.00
2022-12-22T13:38:27.820Z,93425.84
2022-12-22T13:41:04.933Z,93441.31
2022-12-22T13:43:33.105Z,93449.06
2022-12-22T13:46:03.186Z,93425.47
2022-12-22T13:48:39.861Z,93456.34
2022-12-22T13:51:32.664Z,93458.72
2022-12-22T13:54:28.166Z,93477.19
2022-12-22T13:56:59.838Z,93466.00
2022-12-22T13:59:39.263Z,93473.59
2022-12-22T14:02:08.718Z,93480.81
2022-12-22T14:05:15.355Z,93488.47
2022-12-22T14:08:01.862Z,93476.00
2022-12-22T14:10:33.858Z,93483.66
2022-12-22T14:13:32.823Z,93488.28
2022-12-22T14:16:01.494Z,93454.34
2022-12-22T14:18:33.584Z,93475.03
2022-12-22T14:21:00.312Z,93470.03
2022-12-22T14:23:43.183Z,93485.66
2022-12-22T14:26:26.379Z,93498.09
2022-12-22T14:28:56.022Z,93513.34
2022-12-22T14:31:22.496Z,93497.31
2022-12-22T14:34:05.260Z,93508.94
2022-12-22T14:36:41.297Z,93491.72
2022-12-22T14:39:23.459Z,93525.41
2022-12-22T14:42:04.803Z,93500.53
2022-12-22T14:44:45.340Z,93493.69
2022-12-22T14:47:22.068Z,93537.88
2022-12-22T14:49:52.475Z,93510.13
2022-12-22T14:52:49.383Z,93533.44
2022-12-22T14:55:38.929Z,93515.56
2022-12-22T14:58:13.855Z,93502.13
2022-12-22T15:00:45.035Z,93503.34
2022-12-22T15:03:33.345Z,93530.59
2022-12-22T15:06:24.364Z,93537.03
2022-12-22T15:10:03.636Z,93535.44
2022-12-22T15:12:14.234Z,93541.88
2022-12-22T15:14:41.627Z,93501.31
2022-12-22T15:17:20.729Z,93516.38
2022-12-22T15:19:47.666Z,93545.84
2022-12-22T15:22:14.102Z,93504.88
2022-12-22T15:24:40.507Z,93493.69
2022-12-22T15:27:07.368Z,93496.88
2022-12-22T15:29:33.943Z,93495.25
2022-12-22T15:32:12.112Z,93517.78
2022-12-22T15:34:39.021Z,93509.34
2022-12-22T15:37:05.586Z,93507.72
2022-12-22T15:39:32.059Z,93534.25
2022-12-22T15:41:58.473Z,93514.97
2022-12-22T15:44:38.504Z,93497.66
2022-12-22T15:47:06.185Z,93507.34
2022-12-22T15:50:18.796Z,93508.16
2022-12-22T15:52:57.907Z,93486.06
2022-12-22T15:55:42.223Z,93482.69
2022-12-22T15:58:21.525Z,93465.19
2022-12-22T16:00:48.605Z,93482.03
2022-12-22T16:03:15.375Z,93492.69
2022-12-22T16:05:49.020Z,93460.81
2022-12-22T16:08:33.152Z,93495.31
2022-12-22T16:11:06.442Z,93488.28
2022-12-22T16:13:32.948Z,93489.28
2022-12-22T16:15:59.431Z,93497.72
2022-12-22T16:18:38.116Z,93488.44
2022-12-22T16:21:15.540Z,93486.28
2022-12-22T16:23:45.461Z,93483.66
2022-12-22T16:26:22.277Z,93500.53
2022-12-22T16:28:48.824Z,93500.13
2022-12-22T16:31:22.963Z,93524.59
2022-12-22T16:33:50.170Z,93516.53
2022-12-22T16:36:17.368Z,93525.78
2022-12-22T16:38:45.800Z,93521.78
2022-12-22T16:41:23.218Z,93529.03
2022-12-22T16:44:31.373Z,93533.41
2022-12-22T16:47:21.055Z,93518.00
2022-12-22T16:50:03.081Z,93511.75
2022-12-22T16:53:06.617Z,93530.63
2022-12-22T16:55:58.677Z,93529.44
2022-12-22T16:58:26.183Z,93518.78
2022-12-22T17:00:56.841Z,93503.75
2022-12-22T17:03:27.179Z,93522.59
2022-12-22T17:06:03.482Z,93512.59
2022-12-22T17:08:33.581Z,93503.72
2022-12-22T17:11:22.950Z,93520.19
2022-12-22T17:13:51.954Z,93528.22
2022-12-22T17:16:23.100Z,93525.03
2022-12-22T17:18:49.996Z,93531.22
2022-12-22T17:21:29.804Z,93510.38
2022-12-22T17:24:04.033Z,93503.75
2022-12-22T17:26:33.459Z,93491.72
2022-12-22T17:29:01.414Z,93478.88
2022-12-22T17:31:27.909Z,93498.13
2022-12-22T17:33:54.367Z,93495.31
2022-12-22T17:36:39.638Z,93485.41
2022-12-22T17:39:12.028Z,93502.00
2022-12-22T17:41:38.585Z,93473.59
2022-12-22T17:44:05.123Z,93493.81
2022-12-22T17:46:31.655Z,93474.75
2022-12-22T17:49:08.626Z,93479.59
2022-12-22T17:51:35.163Z,93481.22
2022-12-22T17:54:01.921Z,93471.19
2022-12-22T17:56:30.461Z,93487.25
2022-12-22T17:58:57.699Z,93485.69
2022-12-22T18:01:28.210Z,93470.00
2022-12-22T18:03:56.018Z,93460.78
2022-12-22T18:06:26.269Z,93463.19
2022-12-22T18:08:54.962Z,93480.84
2022-12-22T18:11:27.486Z,93465.81
2022-12-22T18:14:00.170Z,93433.72
2022-12-22T18:16:26.688Z,93431.09
2022-12-22T18:18:53.127Z,93427.47
2022-12-22T18:21:23.796Z,93441.91
2022-12-22T18:23:51.352Z,93416.69
2022-12-22T18:26:25.845Z,93450.78
2022-12-22T18:29:04.595Z,93433.50
2022-12-22T18:32:11.630Z,93447.56
2022-12-22T18:34:40.098Z,93450.16
2022-12-22T18:37:13.530Z,93445.97
2022-12-22T18:39:40.760Z,93431.13
2022-12-22T18:42:20.748Z,93452.78
2022-12-22T18:44:47.859Z,93447.13
2022-12-22T18:47:14.466Z,93439.53
2022-12-22T18:49:41.018Z,93451.97
2022-12-22T18:52:18.444Z,93451.56
2022-12-22T18:54:45.602Z,93455.56
2022-12-22T18:57:15.210Z,93453.75
2022-12-22T18:59:42.247Z,93426.25
2022-12-22T19:02:34.828Z,93458.91
2022-12-22T19:05:02.656Z,93449.88
2022-12-22T19:07:32.183Z,93427.41
2022-12-22T19:09:58.622Z,93414.41
2022-12-22T19:12:27.740Z,93421.00
2022-12-22T19:14:59.376Z,93445.06
2022-12-22T19:17:28.816Z,93427.66
2022-12-22T19:19:55.798Z,93417.44
2022-12-22T19:22:22.221Z,93407.41
2022-12-22T19:24:49.044Z,93400.63
2022-12-22T19:27:27.164Z,93404.63
2022-12-22T19:30:03.158Z,93403.22
2022-12-22T19:32:37.939Z,93389.38
2022-12-22T19:35:12.659Z,93405.00
2022-12-22T19:37:39.054Z,93381.34
2022-12-22T19:40:06.128Z,93381.75
2022-12-22T19:42:32.583Z,93387.75
2022-12-22T19:44:59.047Z,93377.72
2022-12-22T19:47:26.749Z,93367.28
2022-12-22T19:49:53.163Z,93380.13
2022-12-22T19:52:20.567Z,93379.34
2022-12-22T19:54:46.997Z,93399.78
2022-12-22T19:57:18.813Z,93399.13
2022-12-22T19:59:48.563Z,93369.63
2022-12-22T20:02:21.310Z,93402.31
2022-12-22T20:04:48.693Z,93386.97
2022-12-22T20:07:20.449Z,93326.38
2022-12-22T20:09:47.296Z,93375.72
2022-12-22T20:12:33.764Z,93382.91
2022-12-22T20:15:01.352Z,93388.16
2022-12-22T20:17:27.945Z,93367.91
2022-12-22T20:19:54.368Z,93358.06
2022-12-22T20:22:22.792Z,93369.28
2022-12-22T20:24:54.436Z,93369.91
2022-12-22T20:27:28.896Z,93354.44
2022-12-22T20:29:58.765Z,93355.69
2022-12-22T20:32:32.315Z,93326.38
2022-12-22T20:34:58.761Z,93341.59
2022-12-22T20:37:25.558Z,93315.97
2022-12-22T20:39:53.576Z,93326.38
2022-12-22T20:42:37.314Z,93326.75
2022-12-22T20:45:04.862Z,93315.13
2022-12-22T20:47:33.615Z,93316.28
2022-12-22T20:50:00.436Z,93298.22
2022-12-22T20:52:27.064Z,93320.31
2022-12-22T20:55:02.664Z,93313.84
2022-12-22T20:57:32.733Z,93303.91
2022-12-22T20:59:59.147Z,93311.03
2022-12-22T21:02:29.095Z,93299.44
2022-12-22T21:04:56.031Z,93298.88
2022-12-22T21:07:22.626Z,93288.25
2022-12-22T21:09:49.121Z,93276.63
2022-12-22T21:12:15.618Z,93300.47
2022-12-22T21:14:42.119Z,93270.16
2022-12-22T21:17:18.901Z,93303.41
2022-12-22T21:19:45.793Z,93307.06
2022-12-22T21:22:12.352Z,93295.44
2022-12-22T21:24:38.818Z,93272.00
2022-12-22T21:27:05.541Z,93267.38
2022-12-22T21:29:31.986Z,93257.78
2022-12-22T21:31:58.409Z,93269.03
2022-12-22T21:34:24.823Z,93257.34
2022-12-22T21:37:01.386Z,93251.75
2022-12-22T21:39:39.174Z,93245.56
2022-12-22T21:42:07.586Z,93245.75
2022-12-22T21:44:35.416Z,93266.22
2022-12-22T21:47:02.718Z,93236.34
2022-12-22T21:49:31.950Z,93220.94
2022-12-22T21:51:58.461Z,93229.91
2022-12-22T21:54:25.758Z,93241.13
2022-12-22T21:56:53.622Z,93248.56
2022-12-22T21:59:20.990Z,93254.19
2022-12-22T22:01:47.801Z,93229.97
2022-12-22T22:04:14.618Z,93211.00
2022-12-22T22:06:41.131Z,93206.22
2022-12-22T22:09:07.711Z,93171.03
2022-12-22T22:11:54.920Z,93198.25
2022-12-22T22:14:22.085Z,93204.22
2022-12-22T22:16:48.685Z,93222.19
2022-12-22T22:19:15.101Z,93194.19
2022-12-22T22:21:41.510Z,93209.81
2022-12-22T22:24:07.966Z,93196.63
2022-12-22T22:26:34.378Z,93201.41
2022-12-22T22:29:00.780Z,93190.78
2022-12-22T22:31:27.355Z,93198.59
2022-12-22T22:33:53.839Z,93187.00
2022-12-22T22:36:20.250Z,93189.44
2022-12-22T22:38:50.251Z,93182.22
2022-12-22T22:41:22.786Z,93179.03
2022-12-22T22:43:49.216Z,93194.25
2022-12-22T22:46:15.983Z,93151.81
2022-12-22T22:48:42.468Z,93145.03
2022-12-22T22:51:10.507Z,93151.44
2022-12-22T22:53:36.930Z,93182.25
2022-12-22T22:56:03.889Z,93165.44
2022-12-22T22:58:30.401Z,93144.63
2022-12-22T23:01:04.202Z,93143.41
2022-12-22T23:03:31.276Z,93163.03
2022-12-22T23:06:05.441Z,93138.22
2022-12-22T23:08:33.449Z,93126.19
2022-12-22T23:11:00.868Z,93146.63
2022-12-22T23:13:27.347Z,93106.81
2022-12-22T23:16:03.006Z,93115.00
2022-12-22T23:18:30.792Z,93114.63
2022-12-22T23:21:01.218Z,93121.19
2022-12-22T23:23:28.934Z,93129.00
2022-12-22T23:25:55.831Z,93106.59
2022-12-22T23:28:22.616Z,93121.00
2022-12-22T23:30:51.621Z,93118.59
2022-12-22T23:33:19.268Z,93120.59
2022-12-22T23:35:48.913Z,93096.59
2022-12-22T23:38:16.515Z,93106.63
2022-12-22T23:40:58.256Z,93114.19
2022-12-22T23:43:24.668Z,93113.38
2022-12-22T23:45:51.078Z,93104.19
2022-12-22T23:48:17.476Z,93101.38
2022-12-22T23:50:47.763Z,93103.38
2022-12-22T23:53:15.252Z,93090.38
2022-12-22T23:55:48.392Z,93102.13
2022-12-22T23:58:15.758Z,93099.75
